Time;durP1;ratioP1;P1;durP2;ratioP2;P2;SDS_P1;SDS_P2;PMS_P1;PMS_P2;Temp;Humidity;BMP_temperature;BMP_pressure;BME280_temperature;BME280_humidity;BME280_pressure;Samples;Min_cycle;Max_cycle;Signal;HPM_P1;HPM_P2
2021/09/15 00:01:17;;;;;;;8.27;7.25;;;18.20;96.90;;;;;;5037387;28;20245;-91
2021/09/15 00:03:45;;;;;;;9.05;7.20;;;18.30;96.50;;;;;;5037729;28;20282;-90
2021/09/15 00:06:12;;;;;;;7.78;7.07;;;18.30;96.50;;;;;;5018106;28;20205;-90
2021/09/15 00:08:39;;;;;;;7.28;6.68;;;18.40;96.20;;;;;;5041623;28;20241;-90
2021/09/15 00:11:06;;;;;;;7.88;6.68;;;18.50;95.50;;;;;;5027408;28;20206;-91
2021/09/15 00:13:34;;;;;;;8.60;7.38;;;18.40;95.80;;;;;;5038338;28;20273;-92
2021/09/15 00:16:01;;;;;;;7.65;6.97;;;18.30;96.20;;;;;;5028738;28;20205;-89
2021/09/15 00:18:30;;;;;;;7.03;6.32;;;18.20;96.20;;;;;;5005294;28;20226;-91
2021/09/15 00:20:56;;;;;;;8.10;7.30;;;18.10;96.50;;;;;;5043290;28;20230;-90
2021/09/15 00:23:24;;;;;;;7.63;6.93;;;18.00;97.10;;;;;;5029509;28;20705;-90
2021/09/15 00:25:51;;;;;;;7.45;6.75;;;18.20;96.90;;;;;;5031636;28;20289;-90
2021/09/15 00:28:18;;;;;;;9.82;7.03;;;18.20;96.30;;;;;;5024761;28;20223;-91
2021/09/15 00:30:44;;;;;;;7.68;6.75;;;18.10;96.50;;;;;;5027077;28;20223;-90
2021/09/15 00:33:12;;;;;;;7.40;6.80;;;18.10;96.50;;;;;;5035774;28;20305;-89
2021/09/15 00:35:40;;;;;;;7.50;6.80;;;18.00;97.00;;;;;;5037505;28;20225;-90
2021/09/15 00:38:08;;;;;;;6.68;6.07;;;17.90;96.80;;;;;;5030086;28;20305;-91
2021/09/15 00:40:34;;;;;;;7.55;6.85;;;17.90;96.80;;;;;;5034811;28;20781;-91
2021/09/15 00:43:01;;;;;;;8.43;7.55;;;17.90;97.20;;;;;;5033174;28;20249;-90
2021/09/15 00:45:29;;;;;;;9.23;7.35;;;17.80;97.50;;;;;;5032677;28;20817;-90
2021/09/15 00:47:57;;;;;;;8.07;7.32;;;17.90;97.60;;;;;;5036285;28;20721;-91
2021/09/15 00:50:24;;;;;;;7.85;7.00;;;18.10;96.90;;;;;;5030620;28;20238;-92
2021/09/15 00:52:52;;;;;;;7.78;6.80;;;18.20;96.30;;;;;;5032879;28;20250;-91
2021/09/15 00:55:20;;;;;;;7.47;6.78;;;18.20;96.00;;;;;;5032329;28;20199;-91
2021/09/15 00:57:47;;;;;;;8.27;7.57;;;18.20;96.10;;;;;;5036869;28;20257;-91
2021/09/15 01:00:14;;;;;;;7.97;6.97;;;18.00;96.40;;;;;;5029814;28;20297;-90
2021/09/15 01:02:41;;;;;;;9.20;7.32;;;17.90;96.30;;;;;;5034055;28;20246;-91
2021/09/15 01:05:09;;;;;;;7.32;6.63;;;17.80;97.10;;;;;;5049246;28;20277;-90
2021/09/15 01:07:36;;;;;;;7.68;6.95;;;17.70;97.20;;;;;;5028645;28;20229;-90
2021/09/15 01:10:06;;;;;;;8.15;6.57;;;17.60;97.50;;;;;;5032047;28;20535;-90
2021/09/15 01:12:34;;;;;;;8.57;7.35;;;17.60;97.50;;;;;;5033672;28;20300;-90
2021/09/15 01:15:01;;;;;;;9.23;7.10;;;17.70;97.50;;;;;;5029937;28;20711;-91
2021/09/15 01:17:28;;;;;;;8.32;6.95;;;17.90;97.60;;;;;;5036792;28;20223;-90
2021/09/15 01:19:57;;;;;;;7.72;6.97;;;18.00;97.40;;;;;;5031861;28;20195;-90
2021/09/15 01:22:26;;;;;;;7.50;6.85;;;18.10;96.50;;;;;;5034602;28;20225;-90
2021/09/15 01:24:53;;;;;;;7.50;6.80;;;18.00;96.80;;;;;;5030354;28;20200;-91
2021/09/15 01:27:20;;;;;;;7.55;6.80;;;17.90;97.10;;;;;;5038261;28;20720;-91
2021/09/15 01:29:47;;;;;;;7.70;7.00;;;17.90;97.00;;;;;;5025898;28;20207;-92
2021/09/15 01:32:16;;;;;;;7.38;6.68;;;18.00;97.40;;;;;;5036667;28;20268;-91
2021/09/15 01:34:45;;;;;;;7.68;6.97;;;18.10;96.90;;;;;;5038915;28;20222;-90
2021/09/15 01:37:14;;;;;;;9.35;7.03;;;18.10;96.40;;;;;;5014254;28;20241;-90
2021/09/15 01:39:42;;;;;;;7.68;6.97;;;17.90;96.10;;;;;;5049356;28;20216;-90
2021/09/15 01:42:11;;;;;;;8.10;7.40;;;17.80;96.90;;;;;;5039273;28;20218;-90
2021/09/15 01:44:39;;;;;;;8.23;7.13;;;17.60;97.50;;;;;;5027239;28;20199;-90
2021/09/15 01:47:09;;;;;;;9.00;8.07;;;17.50;97.80;;;;;;5034807;28;20301;-90
2021/09/15 01:49:38;;;;;;;7.40;6.70;;;17.70;97.50;;;;;;5036164;28;20242;-90
2021/09/15 01:52:06;;;;;;;7.45;6.72;;;17.80;97.60;;;;;;5038668;28;20290;-90
2021/09/15 01:54:34;;;;;;;8.60;7.22;;;17.80;97.00;;;;;;5031450;28;20222;-90
2021/09/15 01:57:05;;;;;;;8.23;7.43;;;17.70;97.00;;;;;;5030449;28;20249;-90
2021/09/15 01:59:32;;;;;;;8.25;7.43;;;17.60;97.50;;;;;;5034615;28;20243;-91
2021/09/15 02:01:59;;;;;;;8.10;7.30;;;17.40;97.50;;;;;;5034789;28;20301;-91
2021/09/15 02:04:26;;;;;;;7.95;7.07;;;17.40;97.50;;;;;;5035515;28;20221;-91
2021/09/15 02:06:54;;;;;;;7.85;7.05;;;17.30;97.40;;;;;;5018627;28;20222;-90
2021/09/15 02:09:21;;;;;;;8.07;7.38;;;17.10;98.10;;;;;;5032425;28;20289;-91
2021/09/15 02:11:48;;;;;;;8.27;7.45;;;17.10;98.50;;;;;;5028747;28;20250;-90
2021/09/15 02:14:16;;;;;;;7.63;6.85;;;17.30;98.20;;;;;;5035676;28;20277;-90
2021/09/15 02:16:43;;;;;;;8.80;7.07;;;17.30;97.60;;;;;;5046979;28;20219;-91
2021/09/15 02:19:11;;;;;;;7.90;7.20;;;17.30;97.80;;;;;;5041358;28;20242;-91
2021/09/15 02:21:39;;;;;;;9.70;7.07;;;17.20;98.20;;;;;;5027430;28;20219;-91
2021/09/15 02:24:07;;;;;;;11.93;10.38;;;17.20;97.50;;;;;;5033919;28;20293;-91
2021/09/15 02:26:34;;;;;;;8.43;7.63;;;17.10;97.80;;;;;;5046456;28;20205;-90
2021/09/15 02:29:01;;;;;;;9.35;7.50;;;17.00;98.30;;;;;;5035191;28;20316;-91
2021/09/15 02:31:31;;;;;;;8.30;7.50;;;16.90;98.60;;;;;;5037808;28;20682;-90
2021/09/15 02:33:58;;;;;;;8.57;7.72;;;16.90;98.80;;;;;;5032931;28;20664;-90
2021/09/15 02:36:25;;;;;;;9.32;7.65;;;16.90;99.20;;;;;;5035848;28;20202;-90
2021/09/15 02:38:52;;;;;;;8.75;7.88;;;17.10;98.80;;;;;;5036875;28;20210;-91
2021/09/15 02:41:19;;;;;;;7.88;7.07;;;17.30;98.20;;;;;;5031513;28;20215;-91
2021/09/15 02:43:46;;;;;;;8.00;7.20;;;17.40;97.60;;;;;;5037590;28;20313;-90
2021/09/15 02:46:15;;;;;;;7.70;6.88;;;17.30;97.50;;;;;;5030188;28;20752;-90
2021/09/15 02:48:43;;;;;;;8.07;7.28;;;17.30;97.40;;;;;;5039491;28;20232;-90
2021/09/15 02:51:11;;;;;;;8.25;7.10;;;17.30;97.40;;;;;;5034315;28;20194;-90
2021/09/15 02:53:38;;;;;;;8.18;7.18;;;17.20;97.40;;;;;;5034099;28;20230;-90
2021/09/15 02:56:05;;;;;;;8.00;7.28;;;17.30;97.70;;;;;;5026343;28;20333;-90
2021/09/15 02:58:32;;;;;;;7.82;7.13;;;17.30;97.50;;;;;;5035439;28;20219;-91
2021/09/15 03:01:00;;;;;;;7.70;7.00;;;17.40;97.50;;;;;;5034556;28;20259;-91
2021/09/15 03:03:27;;;;;;;8.70;6.90;;;17.40;97.50;;;;;;5034061;28;20215;-91
2021/09/15 03:05:55;;;;;;;7.78;7.03;;;17.50;96.80;;;;;;5032347;28;20198;-90
2021/09/15 03:08:22;;;;;;;7.88;7.15;;;17.40;96.70;;;;;;5028638;28;20690;-90
2021/09/15 03:10:49;;;;;;;8.15;7.25;;;17.40;97.40;;;;;;5034334;28;20229;-90
2021/09/15 03:13:16;;;;;;;7.90;6.95;;;17.40;96.80;;;;;;5031711;28;20315;-90
2021/09/15 03:15:44;;;;;;;8.43;6.53;;;17.40;97.50;;;;;;5027171;28;20202;-90
2021/09/15 03:18:11;;;;;;;7.65;6.95;;;17.50;96.60;;;;;;5028275;28;20225;-91
2021/09/15 03:20:38;;;;;;;7.72;7.03;;;17.50;96.60;;;;;;5023949;28;20875;-89
2021/09/15 03:23:07;;;;;;;10.60;6.85;;;17.50;96.60;;;;;;5027827;28;20294;-90
2021/09/15 03:25:34;;;;;;;7.40;6.70;;;17.50;96.60;;;;;;5034857;28;20199;-90
2021/09/15 03:28:01;;;;;;;8.05;7.25;;;17.30;96.10;;;;;;5024149;28;20241;-90
2021/09/15 03:30:28;;;;;;;8.18;7.38;;;17.30;97.10;;;;;;5026088;28;20202;-90
2021/09/15 03:32:55;;;;;;;8.00;7.20;;;17.30;96.70;;;;;;5036465;28;20313;-90
2021/09/15 03:35:22;;;;;;;7.47;6.82;;;17.30;96.90;;;;;;5030642;28;20193;-91
2021/09/15 03:37:49;;;;;;;8.18;7.22;;;17.40;96.80;;;;;;5045910;28;20591;-90
2021/09/15 03:40:17;;;;;;;8.18;7.38;;;17.40;96.80;;;;;;5054182;28;20222;-91
2021/09/15 03:42:44;;;;;;;7.30;6.47;;;17.40;96.80;;;;;;5032923;28;20322;-90
2021/09/15 03:45:11;;;;;;;7.63;6.93;;;17.60;96.20;;;;;;5039632;28;20263;-90
2021/09/15 03:47:38;;;;;;;7.07;6.00;;;17.70;95.70;;;;;;5031522;28;20304;-90
2021/09/15 03:50:06;;;;;;;7.55;6.65;;;17.50;95.50;;;;;;5038563;28;20214;-90
2021/09/15 03:52:33;;;;;;;10.80;6.63;;;17.40;96.30;;;;;;5046330;28;20301;-91
2021/09/15 03:55:04;;;;;;;7.47;6.30;;;17.50;96.30;;;;;;5035610;28;20667;-90
2021/09/15 03:57:32;;;;;;;7.32;6.63;;;17.20;96.00;;;;;;5036670;28;20307;-90
2021/09/15 03:59:59;;;;;;;8.40;7.03;;;17.00;96.90;;;;;;5034941;28;20573;-91
2021/09/15 04:02:26;;;;;;;7.30;6.70;;;16.80;97.30;;;;;;5033025;28;20223;-90
2021/09/15 04:04:53;;;;;;;7.88;7.07;;;16.80;97.30;;;;;;5037567;28;20642;-90
2021/09/15 04:07:20;;;;;;;7.70;7.00;;;16.80;97.40;;;;;;5032845;28;20285;-91
2021/09/15 04:09:47;;;;;;;7.97;7.18;;;16.70;98.20;;;;;;5032264;28;20199;-91
2021/09/15 04:12:14;;;;;;;8.25;7.43;;;16.70;98.90;;;;;;5032415;28;20238;-90
2021/09/15 04:14:42;;;;;;;10.43;8.73;;;16.70;98.50;;;;;;5033319;28;20285;-90
2021/09/15 04:17:09;;;;;;;26.98;22.08;;;16.60;97.60;;;;;;5036651;28;21072;-93
2021/09/15 04:19:36;;;;;;;17.90;15.10;;;16.70;98.90;;;;;;5024468;28;20205;-92
2021/09/15 04:22:03;;;;;;;8.30;7.47;;;16.80;98.20;;;;;;5031973;28;20230;-93
2021/09/15 04:31:11;;;;;;;11.57;8.48;;;16.60;97.30;;;;;;5036549;28;20233;-92
2021/09/15 04:33:02;;;;;;;8.77;7.88;;;16.30;98.80;;;;;;5038345;28;20259;-92
2021/09/15 04:35:29;;;;;;;9.48;6.90;;;16.60;98.80;;;;;;5033444;28;20199;-92
2021/09/15 04:37:56;;;;;;;8.18;7.38;;;16.60;97.60;;;;;;5035661;28;20289;-90
2021/09/15 04:40:23;;;;;;;8.30;6.80;;;16.50;98.20;;;;;;5042475;28;20205;-91
2021/09/15 04:42:50;;;;;;;7.80;7.10;;;16.30;97.70;;;;;;5033936;28;20226;-90
2021/09/15 04:45:33;;;;;;;17.63;9.13;;;16.30;98.90;;;;;;5027052;28;20195;-90
2021/09/15 04:48:00;;;;;;;28.13;11.77;;;16.50;98.30;;;;;;5047992;28;20569;-90
2021/09/15 04:50:27;;;;;;;38.08;13.20;;;16.70;97.70;;;;;;5030563;28;20588;-90
2021/09/15 04:52:54;;;;;;;28.70;12.05;;;16.70;97.60;;;;;;5052023;28;20236;-91
2021/09/15 04:55:20;;;;;;;16.92;9.50;;;16.80;97.30;;;;;;5042127;28;20213;-92
2021/09/15 04:57:47;;;;;;;19.10;9.00;;;16.70;97.30;;;;;;5032106;28;20276;-90
2021/09/15 05:00:15;;;;;;;11.02;7.38;;;16.70;97.30;;;;;;5027853;28;20191;-90
2021/09/15 05:02:43;;;;;;;12.73;8.02;;;16.60;97.30;;;;;;5024537;28;20246;-91
2021/09/15 05:05:19;;;;;;;13.07;7.32;;;16.50;97.30;;;;;;5033645;28;20273;-91
2021/09/15 05:07:46;;;;;;;8.98;7.13;;;16.40;97.90;;;;;;5032719;28;20297;-90
2021/09/15 05:10:13;;;;;;;11.43;7.47;;;16.40;98.10;;;;;;5030964;28;20198;-91
2021/09/15 05:15:16;;;;;;;7.57;6.68;;;16.70;97.30;;;;;;5069980;22;20285;-92
2021/09/15 05:17:44;;;;;;;8.93;6.65;;;16.80;97.30;;;;;;4928149;28;20225;-92
2021/09/15 05:20:16;;;;;;;7.78;5.90;;;16.80;97.30;;;;;;4931555;28;20305;-91
2021/09/15 05:22:44;;;;;;;7.30;6.53;;;16.70;97.30;;;;;;4920881;28;20249;-90
2021/09/15 05:25:11;;;;;;;8.63;6.53;;;16.70;97.30;;;;;;4933118;28;20207;-89
2021/09/15 05:27:38;;;;;;;8.38;6.35;;;16.70;97.30;;;;;;4922308;28;20237;-90
2021/09/15 05:30:07;;;;;;;7.70;6.22;;;16.80;97.30;;;;;;4926147;28;20816;-88
2021/09/15 05:32:34;;;;;;;6.75;6.05;;;17.00;96.80;;;;;;4917108;28;20226;-89
2021/09/15 05:35:04;;;;;;;10.30;6.38;;;17.00;96.40;;;;;;4925804;28;20206;-87
2021/09/15 05:37:31;;;;;;;9.05;6.47;;;17.00;97.10;;;;;;4919242;28;20681;-88
2021/09/15 05:39:59;;;;;;;7.00;6.40;;;17.10;96.90;;;;;;4921237;28;20242;-88
2021/09/15 05:42:26;;;;;;;7.70;6.05;;;17.10;96.40;;;;;;4900484;28;20280;-88
2021/09/15 05:44:54;;;;;;;6.68;6.07;;;17.20;96.10;;;;;;4915167;28;20293;-87
2021/09/15 05:47:21;;;;;;;7.05;6.35;;;17.30;96.30;;;;;;4917980;28;20308;-90
2021/09/15 05:49:48;;;;;;;9.13;6.10;;;17.30;96.30;;;;;;4929629;28;20270;-89
2021/09/15 05:52:16;;;;;;;8.98;6.15;;;17.60;95.60;;;;;;4931162;28;20302;-89
2021/09/15 05:54:44;;;;;;;8.18;5.80;;;17.80;94.90;;;;;;4924814;28;20682;-89
2021/09/15 05:57:11;;;;;;;8.05;6.13;;;17.80;94.60;;;;;;4913370;28;20226;-90
2021/09/15 05:59:38;;;;;;;7.95;5.95;;;17.90;95.00;;;;;;4924666;28;20651;-89
2021/09/15 06:02:05;;;;;;;7.30;6.28;;;18.00;94.70;;;;;;4932186;28;20238;-89
2021/09/15 06:04:32;;;;;;;7.00;6.30;;;18.20;94.30;;;;;;4912522;28;20789;-90
2021/09/15 06:06:59;;;;;;;7.57;6.18;;;18.40;93.60;;;;;;4902193;28;20226;-89
2021/09/15 06:09:28;;;;;;;6.22;5.63;;;18.40;93.30;;;;;;4923438;28;20313;-90
2021/09/15 06:11:55;;;;;;;6.18;5.57;;;18.30;93.90;;;;;;4903528;28;20227;-89
2021/09/15 06:14:23;;;;;;;6.95;6.15;;;18.30;93.70;;;;;;4900642;28;20258;-90
2021/09/15 06:16:50;;;;;;;8.13;6.47;;;18.40;94.00;;;;;;4935481;28;20337;-89
2021/09/15 06:19:17;;;;;;;6.85;6.15;;;18.40;93.90;;;;;;4946460;28;20237;-88
2021/09/15 06:21:45;;;;;;;7.32;6.38;;;18.50;94.00;;;;;;4947158;28;20230;-91
2021/09/15 06:24:14;;;;;;;6.47;5.88;;;18.50;93.80;;;;;;4926382;28;20199;-90
2021/09/15 06:26:43;;;;;;;6.90;6.10;;;18.50;93.80;;;;;;4924994;28;20646;-90
2021/09/15 06:29:10;;;;;;;8.57;5.78;;;18.70;93.60;;;;;;4941680;28;20182;-92
2021/09/15 06:31:37;;;;;;;7.55;6.70;;;18.60;93.60;;;;;;4929310;28;20290;-90
2021/09/15 06:34:05;;;;;;;10.00;6.35;;;18.70;93.50;;;;;;4952875;28;20242;-90
2021/09/15 06:36:33;;;;;;;7.25;6.55;;;18.80;92.80;;;;;;4918727;28;20309;-91
2021/09/15 06:39:00;;;;;;;9.20;5.95;;;19.00;92.40;;;;;;4927182;28;20559;-91
2021/09/15 06:41:27;;;;;;;8.15;6.20;;;19.10;92.40;;;;;;4903860;28;20202;-90
2021/09/15 06:43:56;;;;;;;6.57;5.95;;;19.20;92.50;;;;;;4910988;29;20208;-90
2021/09/15 06:46:24;;;;;;;9.18;7.00;;;19.10;92.40;;;;;;4914352;28;20210;-92
2021/09/15 06:48:51;;;;;;;7.90;6.15;;;19.20;92.60;;;;;;4923645;28;20241;-91
2021/09/15 06:51:18;;;;;;;7.13;6.43;;;19.20;92.40;;;;;;4921043;28;20287;-90
2021/09/15 06:53:46;;;;;;;8.73;6.50;;;19.30;92.30;;;;;;4919087;28;20256;-91
2021/09/15 06:56:14;;;;;;;7.10;6.40;;;19.50;92.50;;;;;;4940017;28;20230;-88
2021/09/15 06:58:42;;;;;;;7.82;6.80;;;19.70;91.70;;;;;;4922683;28;20230;-90
2021/09/15 07:01:10;;;;;;;6.50;5.90;;;19.80;91.10;;;;;;4920617;28;20206;-90
2021/09/15 07:03:40;;;;;;;7.50;6.13;;;19.80;90.70;;;;;;4904800;28;20241;-88
2021/09/15 07:06:07;;;;;;;9.32;6.30;;;19.80;90.80;;;;;;4904980;28;20678;-89
2021/09/15 07:08:34;;;;;;;7.45;6.15;;;19.70;91.10;;;;;;4926988;28;20347;-91
2021/09/15 07:11:01;;;;;;;8.02;6.45;;;19.60;91.40;;;;;;4923931;28;20210;-88
2021/09/15 07:13:29;;;;;;;7.45;6.32;;;19.60;91.40;;;;;;4913691;28;20301;-90
2021/09/15 07:15:58;;;;;;;8.23;6.88;;;19.40;92.40;;;;;;4900169;28;20650;-89
2021/09/15 07:18:28;;;;;;;7.47;6.28;;;19.50;92.30;;;;;;4901707;28;20234;-90
2021/09/15 07:20:56;;;;;;;9.25;6.18;;;19.50;92.30;;;;;;4925748;28;20207;-88
2021/09/15 07:23:25;;;;;;;7.25;6.55;;;19.50;92.30;;;;;;4922234;28;20239;-88
2021/09/15 07:25:52;;;;;;;9.73;6.93;;;19.60;92.10;;;;;;4930999;28;20363;-89
2021/09/15 07:28:19;;;;;;;8.80;6.68;;;19.60;92.10;;;;;;4928199;28;20223;-89
2021/09/15 07:30:47;;;;;;;8.60;6.28;;;19.60;92.40;;;;;;4928307;28;20770;-89
2021/09/15 07:33:15;;;;;;;9.63;6.50;;;19.70;92.60;;;;;;4904417;28;20231;-89
2021/09/15 07:35:44;;;;;;;8.10;6.60;;;19.70;92.70;;;;;;4925454;28;20655;-89
2021/09/15 07:38:11;;;;;;;7.90;6.80;;;19.90;92.60;;;;;;4933642;28;20238;-89
2021/09/15 07:40:38;;;;;;;8.85;6.63;;;20.20;91.80;;;;;;4931845;28;20294;-88
2021/09/15 07:43:05;;;;;;;8.68;6.93;;;20.40;91.10;;;;;;4922686;28;20235;-90
2021/09/15 07:45:33;;;;;;;10.45;6.10;;;20.50;91.60;;;;;;4890097;28;20215;-89
2021/09/15 07:48:00;;;;;;;7.05;6.32;;;20.80;90.00;;;;;;4906970;28;20998;-89
2021/09/15 07:50:27;;;;;;;8.00;7.20;;;21.10;87.70;;;;;;4929663;28;20293;-90
2021/09/15 07:52:56;;;;;;;9.45;7.20;;;21.20;86.50;;;;;;4929920;28;20297;-89
2021/09/15 07:55:23;;;;;;;7.07;6.40;;;21.30;86.00;;;;;;4930944;28;20199;-90
2021/09/15 07:57:53;;;;;;;9.38;6.70;;;21.30;86.20;;;;;;4923230;28;20309;-90
2021/09/15 08:00:20;;;;;;;8.88;7.10;;;21.30;86.20;;;;;;4915197;28;20201;-89
2021/09/15 08:02:47;;;;;;;7.72;7.00;;;21.40;85.90;;;;;;4918923;28;20698;-91
2021/09/15 08:05:15;;;;;;;7.85;7.10;;;21.40;86.10;;;;;;4885376;28;20207;-89
2021/09/15 08:07:42;;;;;;;8.55;7.25;;;21.40;87.20;;;;;;4922359;28;20230;-91
2021/09/15 08:10:12;;;;;;;8.60;6.60;;;21.50;83.90;;;;;;4921870;28;20678;-88
2021/09/15 08:12:39;;;;;;;7.40;6.70;;;21.60;82.90;;;;;;4943046;28;20232;-89
2021/09/15 08:15:07;;;;;;;7.95;7.15;;;21.60;82.40;;;;;;4975358;28;20220;-89
2021/09/15 08:17:34;;;;;;;7.65;6.35;;;21.50;83.50;;;;;;4916246;28;20243;-90
2021/09/15 08:20:02;;;;;;;8.02;6.93;;;21.40;85.70;;;;;;4938702;28;20656;-89
2021/09/15 08:22:29;;;;;;;10.90;6.85;;;21.30;86.30;;;;;;4926737;28;20231;-90
2021/09/15 08:24:56;;;;;;;10.40;7.57;;;21.30;87.00;;;;;;4922647;28;20745;-90
2021/09/15 08:27:25;;;;;;;7.63;6.90;;;21.20;87.30;;;;;;4922629;28;20317;-90
2021/09/15 08:29:52;;;;;;;7.50;6.80;;;21.00;89.00;;;;;;4923495;28;20211;-90
2021/09/15 08:32:19;;;;;;;7.95;6.82;;;20.80;88.50;;;;;;4936207;28;20236;-90
2021/09/15 08:34:46;;;;;;;8.93;7.35;;;20.90;89.90;;;;;;4943905;28;20206;-90
2021/09/15 08:37:13;;;;;;;8.95;7.28;;;20.80;87.90;;;;;;4914462;28;20240;-91
2021/09/15 08:39:40;;;;;;;9.10;6.72;;;21.20;88.10;;;;;;4918845;28;20202;-90
2021/09/15 08:42:08;;;;;;;10.68;7.15;;;21.60;86.20;;;;;;4918293;28;20329;-90
2021/09/15 08:44:38;;;;;;;7.07;6.38;;;21.70;84.10;;;;;;4940996;28;20261;-89
2021/09/15 08:47:07;;;;;;;6.97;6.38;;;21.90;84.40;;;;;;4936321;28;20225;-90
2021/09/15 08:49:35;;;;;;;7.53;6.75;;;21.80;82.20;;;;;;4925892;28;20210;-90
2021/09/15 08:52:02;;;;;;;8.10;7.25;;;21.90;82.20;;;;;;4920932;28;20244;-89
2021/09/15 08:54:29;;;;;;;7.57;6.68;;;22.00;82.20;;;;;;4909087;28;20206;-90
2021/09/15 08:56:56;;;;;;;10.80;6.63;;;22.10;81.20;;;;;;4931438;28;20252;-90
2021/09/15 08:59:23;;;;;;;7.10;6.50;;;22.20;80.40;;;;;;4919824;28;20568;-88
2021/09/15 09:02:06;;;;;;;7.00;6.05;;;22.40;80.10;;;;;;4922431;28;20248;-91
2021/09/15 09:04:49;;;;;;;8.02;6.15;;;22.90;77.90;;;;;;4943276;28;20211;-88
2021/09/15 09:07:16;;;;;;;7.18;6.13;;;23.30;71.70;;;;;;4917310;28;20224;-88
2021/09/15 09:09:47;;;;;;;7.07;6.38;;;23.20;71.10;;;;;;4953817;28;20238;-87
2021/09/15 09:12:15;;;;;;;9.27;6.63;;;23.40;69.50;;;;;;4915576;28;20690;-88
2021/09/15 09:14:42;;;;;;;6.30;5.68;;;23.70;68.40;;;;;;4929717;28;20236;-85
2021/09/15 09:17:26;;;;;;;7.35;6.15;;;23.90;65.30;;;;;;4968017;28;20320;-85
2021/09/15 09:20:31;;;;;;;7.20;6.50;;;24.00;62.30;;;;;;4959118;28;20290;-85
2021/09/15 09:23:04;;;;;;;8.07;6.50;;;24.00;63.90;;;;;;4929958;28;20232;-86
2021/09/15 09:25:35;;;;;;;6.68;5.90;;;23.90;63.20;;;;;;4946301;28;20201;-86
2021/09/15 09:28:03;;;;;;;6.55;5.88;;;23.70;61.70;;;;;;4960226;28;21052;-87
2021/09/15 09:30:34;;;;;;;6.75;6.13;;;23.60;63.10;;;;;;4925543;28;20202;-87
2021/09/15 09:33:04;;;;;;;8.20;6.13;;;23.40;65.10;;;;;;4923332;28;20225;-86
2021/09/15 09:35:43;;;;;;;8.25;6.30;;;23.40;67.80;;;;;;4893531;28;20214;-86
2021/09/15 09:38:28;;;;;;;6.70;5.72;;;23.20;70.90;;;;;;4932347;28;20228;-89
2021/09/15 09:41:09;;;;;;;6.82;6.13;;;22.90;72.30;;;;;;4919981;28;20239;-86
2021/09/15 09:43:37;;;;;;;9.35;6.88;;;22.80;74.90;;;;;;4930488;28;20324;-88
2021/09/15 09:46:06;;;;;;;6.35;5.40;;;22.70;76.00;;;;;;4922549;28;20230;-88
2021/09/15 09:48:43;;;;;;;6.60;6.00;;;22.50;77.90;;;;;;4930801;28;20236;-90
2021/09/15 09:51:25;;;;;;;7.03;6.35;;;22.40;80.00;;;;;;4922012;28;20221;-89
2021/09/15 09:54:06;;;;;;;7.10;6.13;;;22.40;78.60;;;;;;4956456;28;20230;-88
2021/09/15 09:56:35;;;;;;;7.72;6.78;;;22.30;79.40;;;;;;4922519;28;20233;-88
2021/09/15 09:59:03;;;;;;;7.43;6.70;;;22.40;79.50;;;;;;4937716;28;20206;-88
2021/09/15 10:01:31;;;;;;;8.18;6.25;;;22.70;78.30;;;;;;4933849;28;20243;-87
2021/09/15 10:04:03;;;;;;;6.95;5.90;;;23.00;75.20;;;;;;4921940;28;20619;-88
2021/09/15 10:06:31;;;;;;;6.65;6.03;;;23.40;68.60;;;;;;4907555;28;20202;-85
2021/09/15 10:08:58;;;;;;;6.75;5.90;;;24.00;63.80;;;;;;4927881;28;20233;-87
2021/09/15 10:11:26;;;;;;;7.68;6.57;;;24.60;60.10;;;;;;4904031;28;20211;-87
2021/09/15 10:13:53;;;;;;;8.20;5.95;;;25.10;57.50;;;;;;4911573;28;20254;-87
2021/09/15 10:16:23;;;;;;;7.20;6.50;;;25.20;53.10;;;;;;4919036;28;20205;-87
2021/09/15 10:18:57;;;;;;;8.60;6.97;;;25.10;52.60;;;;;;4914780;28;20248;-87
2021/09/15 10:21:29;;;;;;;8.95;6.30;;;25.10;55.80;;;;;;4917690;28;20210;-87
2021/09/15 10:23:56;;;;;;;7.63;6.75;;;25.40;53.00;;;;;;4918931;28;20230;-87
2021/09/15 10:26:29;;;;;;;10.05;6.93;;;25.50;49.80;;;;;;4927951;28;20203;-89
2021/09/15 10:29:15;;;;;;;9.73;6.43;;;25.30;50.00;;;;;;4924524;28;20218;-86
2021/09/15 10:32:00;;;;;;;9.85;7.28;;;25.20;51.80;;;;;;4919927;28;20210;-86
2021/09/15 10:34:46;;;;;;;9.13;7.05;;;25.40;51.20;;;;;;4906427;28;20623;-85
2021/09/15 10:37:51;;;;;;;10.13;6.20;;;25.30;51.00;;;;;;4919011;28;20236;-86
2021/09/15 10:40:40;;;;;;;9.38;7.57;;;25.40;50.70;;;;;;4913161;28;20248;-86
2021/09/15 10:43:44;;;;;;;9.85;7.43;;;25.40;50.80;;;;;;4923493;28;20241;-85
2021/09/15 10:46:26;;;;;;;8.13;7.32;;;25.40;50.50;;;;;;4914786;28;20198;-85
2021/09/15 10:49:19;;;;;;;8.73;7.10;;;25.20;51.00;;;;;;4912962;28;20219;-85
2021/09/15 10:51:47;;;;;;;8.88;6.93;;;25.30;50.20;;;;;;4924406;28;20572;-85
2021/09/15 10:54:42;;;;;;;9.18;7.57;;;25.30;50.70;;;;;;4914323;28;20209;-87
2021/09/15 10:57:15;;;;;;;7.90;7.20;;;25.00;51.40;;;;;;4951662;28;20221;-86
2021/09/15 10:59:50;;;;;;;10.60;7.25;;;24.90;53.20;;;;;;4928385;28;20658;-85
2021/09/15 11:02:25;;;;;;;8.80;7.72;;;25.10;53.00;;;;;;4922418;28;20230;-85
2021/09/15 11:04:52;;;;;;;9.30;7.38;;;25.30;52.40;;;;;;4911607;29;20226;-85
2021/09/15 11:07:57;;;;;;;10.68;8.40;;;25.20;52.00;;;;;;4925965;28;20593;-85
2021/09/15 11:10:38;;;;;;;16.38;14.73;;;25.00;52.50;;;;;;4920727;28;20205;-85
2021/09/15 11:13:08;;;;;;;12.20;8.35;;;24.80;53.20;;;;;;4907942;28;20242;-85
2021/09/15 11:15:37;;;;;;;9.35;8.13;;;24.80;53.10;;;;;;4924764;28;20207;-85
2021/09/15 11:18:05;;;;;;;8.30;7.30;;;24.80;52.60;;;;;;4922669;28;20233;-88
2021/09/15 11:20:37;;;;;;;9.90;8.38;;;24.60;53.40;;;;;;4925657;28;20206;-85
2021/09/15 11:23:07;;;;;;;9.65;8.48;;;24.60;52.70;;;;;;4958072;28;20237;-86
2021/09/15 11:25:34;;;;;;;8.95;7.85;;;24.50;53.40;;;;;;4943461;28;20198;-87
2021/09/15 11:28:12;;;;;;;11.57;8.48;;;24.40;53.70;;;;;;4922658;28;20226;-88
2021/09/15 11:30:41;;;;;;;10.05;8.50;;;24.40;53.60;;;;;;4926430;28;20729;-88
2021/09/15 11:33:09;;;;;;;10.02;6.85;;;24.30;54.20;;;;;;4920389;28;20244;-87
2021/09/15 11:35:39;;;;;;;7.88;6.57;;;24.20;54.70;;;;;;4910289;28;20209;-88
2021/09/15 11:38:06;;;;;;;9.27;7.75;;;24.20;56.40;;;;;;4959046;28;20313;-88
2021/09/15 11:40:35;;;;;;;9.73;7.43;;;24.20;55.30;;;;;;4959990;28;20207;-88
2021/09/15 11:43:08;;;;;;;7.90;7.10;;;24.30;54.80;;;;;;4913268;28;20238;-89
2021/09/15 11:45:36;;;;;;;8.05;7.03;;;24.20;56.30;;;;;;4908427;28;20280;-88
2021/09/15 11:48:04;;;;;;;12.20;7.63;;;24.20;57.20;;;;;;4907864;28;20234;-89
2021/09/15 11:50:35;;;;;;;7.68;6.88;;;23.90;57.60;;;;;;4907517;28;20233;-87
2021/09/15 11:53:06;;;;;;;7.90;7.10;;;23.90;59.40;;;;;;4911667;28;20299;-88
2021/09/15 11:55:37;;;;;;;8.18;6.75;;;23.70;59.30;;;;;;4915489;28;20203;-87
2021/09/15 11:58:05;;;;;;;8.23;6.82;;;23.80;59.30;;;;;;4898895;28;20254;-88
2021/09/15 12:00:34;;;;;;;9.80;6.40;;;23.70;59.20;;;;;;4899035;28;20303;-89
2021/09/15 12:03:04;;;;;;;8.43;6.65;;;23.70;59.20;;;;;;4881738;28;20227;-87
2021/09/15 12:05:32;;;;;;;6.95;6.10;;;23.70;58.70;;;;;;4920750;28;20207;-88
2021/09/15 12:07:59;;;;;;;9.23;5.53;;;23.90;59.40;;;;;;4896098;28;20581;-88
2021/09/15 12:10:27;;;;;;;9.05;6.35;;;24.20;57.70;;;;;;4912090;28;20287;-88
2021/09/15 12:12:58;;;;;;;8.80;5.82;;;24.40;56.10;;;;;;4909918;28;20238;-88
2021/09/15 12:15:25;;;;;;;8.15;5.85;;;24.60;55.30;;;;;;4912221;28;20667;-88
2021/09/15 12:17:59;;;;;;;8.23;6.38;;;24.60;55.20;;;;;;4910745;28;20240;-88
2021/09/15 12:20:39;;;;;;;11.80;6.32;;;24.40;54.30;;;;;;4904075;28;20208;-88
2021/09/15 12:23:06;;;;;;;12.40;6.25;;;24.50;55.30;;;;;;4905277;28;20235;-89
2021/09/15 12:25:34;;;;;;;10.00;6.30;;;24.60;54.90;;;;;;4907830;28;20674;-88
2021/09/15 12:28:01;;;;;;;12.93;6.40;;;24.50;55.00;;;;;;4916545;28;20230;-89
2021/09/15 12:30:30;;;;;;;6.70;6.05;;;24.40;55.80;;;;;;4901988;28;20263;-88
2021/09/15 12:33:00;;;;;;;7.38;6.47;;;24.20;54.50;;;;;;4940436;28;20254;-88
2021/09/15 12:35:33;;;;;;;10.20;6.50;;;24.10;58.80;;;;;;4912047;28;20210;-88
2021/09/15 12:38:02;;;;;;;9.35;6.50;;;23.90;56.60;;;;;;4926969;28;20277;-89
2021/09/15 12:40:29;;;;;;;8.70;6.55;;;23.60;59.20;;;;;;4924118;28;20202;-87
2021/09/15 12:43:02;;;;;;;8.60;6.40;;;23.30;58.90;;;;;;4933612;28;20297;-87
2021/09/15 12:45:32;;;;;;;10.00;6.50;;;23.30;58.90;;;;;;4919690;28;20287;-88
2021/09/15 12:48:01;;;;;;;9.07;6.85;;;23.40;61.00;;;;;;4920079;28;20759;-88
2021/09/15 12:50:32;;;;;;;8.75;6.85;;;23.40;62.00;;;;;;4926294;28;20206;-87
2021/09/15 12:53:06;;;;;;;10.77;6.88;;;23.30;63.80;;;;;;4926777;28;20293;-88
2021/09/15 12:55:34;;;;;;;9.40;6.63;;;23.40;64.60;;;;;;4930007;28;20315;-89
2021/09/15 12:58:03;;;;;;;9.48;7.70;;;23.20;67.00;;;;;;4905458;28;20764;-87
2021/09/15 13:00:33;;;;;;;10.82;8.35;;;23.10;69.60;;;;;;4939282;28;20230;-89
2021/09/15 13:03:03;;;;;;;10.90;8.55;;;22.90;73.00;;;;;;4927744;28;20233;-88
2021/09/15 13:05:34;;;;;;;10.73;9.05;;;22.60;76.30;;;;;;4932195;28;20226;-87